Time,TemperatureF,DewpointF,PressureIn,WindDirection,WindDirectionDegrees,WindSpeedMPH,WindSpeedGustMPH,Humidity,HourlyPrecipIn,Conditions,Clouds,dailyrainin,SolarRadiationWatts/m^2,SoftwareType,DateUTC
2013-03-25 00:00:00,33.2,30.9,29.52,ESE,109,1.0,4.0,91,0.00,,---,0.00,0.00,VWS V14.00,2013-03-25 04:00:00,
2013-03-25 00:05:00,33.1,31.0,29.51,ESE,112,0.0,0.0,92,0.00,,---,0.00,0.00,VWS V14.00,2013-03-25 04:05:00,
2013-03-25 00:10:00,33.0,30.9,29.51,ESE,112,0.0,1.0,92,0.00,,---,0.00,0.00,VWS V14.00,2013-03-25 04:10:00,
2013-03-25 00:15:00,32.9,31.1,29.51,SSE,159,2.0,2.0,93,0.00,,---,0.00,0.00,VWS V14.00,2013-03-25 04:15:00,
2013-03-25 00:20:00,32.8,31.0,29.52,SE,126,0.0,2.0,93,0.00,,---,0.00,0.00,VWS V14.00,2013-03-25 04:20:00,
2013-03-25 00:25:00,32.7,30.9,29.51,ESE,117,5.0,5.0,93,0.00,,---,0.00,0.00,VWS V14.00,2013-03-25 04:25:00,
2013-03-25 00:30:00,32.6,31.1,29.52,SE,139,0.0,5.0,94,0.00,,---,0.00,0.00,VWS V14.00,2013-03-25 04:30:00,
2013-03-25 00:35:00,32.5,31.0,29.51,ESE,109,1.0,4.0,94,0.00,,---,0.00,0.00,VWS V14.00,2013-03-25 04:35:00,
2013-03-25 00:41:00,32.5,31.0,29.52,ESE,110,0.0,4.0,94,0.00,,---,0.00,0.00,VWS V14.00,2013-03-25 04:41:00,
2013-03-25 00:46:00,32.4,31.1,29.52,ESE,115,5.0,5.0,95,0.00,,---,0.00,0.00,VWS V14.00,2013-03-25 04:46:00,
2013-03-25 00:51:00,32.4,31.1,29.52,SSE,160,0.0,5.0,95,0.00,,---,0.00,0.00,VWS V14.00,2013-03-25 04:51:00,
2013-03-25 00:56:00,32.4,31.1,29.51,East,100,0.0,5.0,95,0.00,,---,0.00,0.00,VWS V14.00,2013-03-25 04:56:00,
2013-03-25 01:00:00,32.3,31.0,29.52,East,96,0.0,5.0,95,0.00,,---,0.00,0.00,VWS V14.00,2013-03-25 05:00:00,
2013-03-25 01:01:00,32.3,31.0,29.51,ESE,113,0.0,0.0,95,0.00,,---,0.00,0.00,VWS V14.00,2013-03-25 05:01:00,
2013-03-25 01:06:00,32.3,31.0,29.51,ESE,109,0.0,0.0,95,0.00,,---,0.00,0.00,VWS V14.00,2013-03-25 05:06:00,
2013-03-25 01:11:00,32.3,31.0,29.51,SSE,152,0.0,0.0,95,0.00,,---,0.00,0.00,VWS V14.00,2013-03-25 05:11:00,
2013-03-25 01:16:00,32.2,30.9,29.51,ESE,105,0.0,0.0,95,0.00,,---,0.00,0.00,VWS V14.00,2013-03-25 05:16:00,
2013-03-25 01:21:00,32.1,30.8,29.51,ESE,107,0.0,0.0,95,0.00,,---,0.00,0.00,VWS V14.00,2013-03-25 05:21:00,
2013-03-25 01:26:00,32.1,30.8,29.51,SE,137,0.0,0.0,95,0.00,,---,0.00,0.00,VWS V14.00,2013-03-25 05:26:00,
2013-03-25 01:30:00,32.1,30.8,29.51,ESE,102,0.0,0.0,95,0.00,,---,0.00,0.00,VWS V14.00,2013-03-25 05:30:00,
2013-03-25 01:31:00,32.1,30.8,29.51,East,97,0.0,0.0,95,0.00,,---,0.00,0.00,VWS V14.00,2013-03-25 05:31:00,
2013-03-25 01:37:00,32.0,31.0,29.51,ESE,119,0.0,0.0,96,0.00,,---,0.00,0.00,VWS V14.00,2013-03-25 05:37:00,
2013-03-25 01:42:00,32.0,31.0,29.50,SE,127,0.0,0.0,96,0.00,,---,0.00,0.00,VWS V14.00,2013-03-25 05:42:00,
2013-03-25 01:47:00,32.0,31.0,29.50,ESE,104,0.0,0.0,96,0.00,,---,0.00,0.00,VWS V14.00,2013-03-25 05:47:00,
2013-03-25 01:52:00,32.0,31.0,29.51,ESE,117,0.0,0.0,96,0.00,,---,0.00,0.00,VWS V14.00,2013-03-25 05:52:00,
2013-03-25 01:57:00,32.0,31.0,29.51,SE,124,0.0,0.0,96,0.00,,---,0.00,0.00,VWS V14.00,2013-03-25 05:57:00,
2013-03-25 02:00:00,31.9,30.9,29.50,SE,128,0.0,0.0,96,0.00,,---,0.00,0.00,VWS V14.00,2013-03-25 06:00:00,
2013-03-25 02:02:00,31.9,30.9,29.50,ESE,109,0.0,0.0,96,0.00,,---,0.00,0.00,VWS V14.00,2013-03-25 06:02:00,
2013-03-25 02:07:00,31.8,30.8,29.50,ESE,113,0.0,0.0,96,0.00,,---,0.00,0.00,VWS V14.00,2013-03-25 06:07:00,
2013-03-25 02:12:00,31.7,30.7,29.50,SSE,153,0.0,0.0,96,0.00,,---,0.00,0.00,VWS V14.00,2013-03-25 06:12:00,
2013-03-25 02:17:00,31.6,30.6,29.50,ESE,118,0.0,0.0,96,0.00,,---,0.00,0.00,VWS V14.00,2013-03-25 06:17:00,
2013-03-25 02:22:00,31.5,30.5,29.50,ESE,105,0.0,0.0,96,0.00,,---,0.00,0.00,VWS V14.00,2013-03-25 06:22:00,
2013-03-25 02:27:00,31.5,30.5,29.50,SE,127,0.0,0.0,96,0.00,,---,0.00,0.00,VWS V14.00,2013-03-25 06:27:00,
2013-03-25 02:30:00,31.5,30.5,29.50,East,87,0.0,0.0,96,0.00,,---,0.00,0.00,VWS V14.00,2013-03-25 06:30:00,
2013-03-25 02:32:00,31.5,30.5,29.49,ESE,105,0.0,0.0,96,0.00,,---,0.00,0.00,VWS V14.00,2013-03-25 06:32:00,
2013-03-25 02:37:00,31.5,30.5,29.49,ESE,109,0.0,0.0,96,0.00,,---,0.00,0.00,VWS V14.00,2013-03-25 06:37:00,
2013-03-25 02:42:00,31.5,30.5,29.49,SE,130,0.0,0.0,96,0.00,,---,0.00,0.00,VWS V14.00,2013-03-25 06:42:00,
2013-03-25 02:47:00,31.4,30.4,29.49,East,100,0.0,0.0,96,0.00,,---,0.00,0.00,VWS V14.00,2013-03-25 06:47:00,
2013-03-25 02:52:00,31.4,30.4,29.49,East,98,0.0,0.0,96,0.00,,---,0.00,0.00,VWS V14.00,2013-03-25 06:52:00,
2013-03-25 02:57:00,31.4,30.4,29.48,East,95,0.0,0.0,96,0.00,,---,0.00,0.00,VWS V14.00,2013-03-25 06:57:00,
2013-03-25 03:00:00,31.4,30.4,29.48,ESE,117,0.0,0.0,96,0.00,,---,0.00,0.00,VWS V14.00,2013-03-25 07:00:00,
2013-03-25 03:02:00,31.4,30.4,29.48,SE,128,0.0,0.0,96,0.00,,---,0.00,0.00,VWS V14.00,2013-03-25 07:02:00,
2013-03-25 03:07:00,31.4,30.4,29.48,ESE,109,0.0,0.0,96,0.00,,---,0.00,0.00,VWS V14.00,2013-03-25 07:07:00,
2013-03-25 03:12:00,31.3,30.3,29.47,ESE,117,0.0,0.0,96,0.00,,---,0.00,0.00,VWS V14.00,2013-03-25 07:12:00,
2013-03-25 03:17:00,31.3,30.3,29.47,ESE,121,0.0,0.0,96,0.00,,---,0.00,0.00,VWS V14.00,2013-03-25 07:17:00,
2013-03-25 03:22:00,31.3,30.3,29.47,ESE,106,0.0,0.0,96,0.00,,---,0.00,0.00,VWS V14.00,2013-03-25 07:22:00,
2013-03-25 03:27:00,31.3,30.3,29.47,ESE,121,0.0,0.0,96,0.00,,---,0.00,0.00,VWS V14.00,2013-03-25 07:27:00,
2013-03-25 03:30:00,31.3,30.3,29.46,ESE,109,0.0,0.0,96,0.00,,---,0.00,0.00,VWS V14.00,2013-03-25 07:30:00,
2013-03-25 03:32:00,31.3,30.3,29.46,ESE,110,0.0,0.0,96,0.00,,---,0.00,0.00,VWS V14.00,2013-03-25 07:32:00,
2013-03-25 03:37:00,31.4,30.4,29.46,ESE,109,0.0,0.0,96,0.00,,---,0.00,0.00,VWS V14.00,2013-03-25 07:37:00,
2013-03-25 03:42:00,31.3,30.3,29.46,ESE,103,0.0,0.0,96,0.00,,---,0.00,0.00,VWS V14.00,2013-03-25 07:42:00,
2013-03-25 03:47:00,31.4,30.4,29.46,East,97,0.0,0.0,96,0.00,,---,0.00,0.00,VWS V14.00,2013-03-25 07:47:00,
2013-03-25 03:53:00,31.4,30.4,29.46,SE,129,0.0,0.0,96,0.00,,---,0.00,0.00,VWS V14.00,2013-03-25 07:53:00,
2013-03-25 03:58:00,31.4,30.6,29.45,ESE,111,0.0,0.0,97,0.00,,---,0.00,0.00,VWS V14.00,2013-03-25 07:58:00,
2013-03-25 04:00:00,31.4,30.6,29.45,ESE,104,0.0,0.0,97,0.00,,---,0.00,0.00,VWS V14.00,2013-03-25 08:00:00,
2013-03-25 04:03:00,31.4,30.6,29.45,SE,138,0.0,0.0,97,0.00,,---,0.00,0.00,VWS V14.00,2013-03-25 08:03:00,
2013-03-25 04:08:00,31.4,30.6,29.45,ESE,110,0.0,0.0,97,0.00,,---,0.00,0.00,VWS V14.00,2013-03-25 08:08:00,
2013-03-25 04:13:00,31.4,30.6,29.45,ESE,120,0.0,0.0,97,0.00,,---,0.00,0.00,VWS V14.00,2013-03-25 08:13:00,
2013-03-25 04:18:00,31.4,30.6,29.45,ESE,113,0.0,0.0,97,0.00,,---,0.00,0.00,VWS V14.00,2013-03-25 08:18:00,
2013-03-25 04:23:00,31.4,30.6,29.45,SE,124,0.0,0.0,97,0.00,,---,0.00,0.00,VWS V14.00,2013-03-25 08:23:00,
2013-03-25 04:28:00,31.5,30.8,29.45,ESE,113,0.0,0.0,97,0.00,,---,0.00,0.00,VWS V14.00,2013-03-25 08:28:00,
2013-03-25 04:30:00,31.4,30.6,29.45,ESE,112,0.0,0.0,97,0.00,,---,0.00,0.00,VWS V14.00,2013-03-25 08:30:00,
2013-03-25 04:33:00,31.5,30.8,29.45,ESE,112,0.0,0.0,97,0.00,,---,0.00,0.00,VWS V14.00,2013-03-25 08:33:00,
2013-03-25 04:38:00,31.5,30.8,29.45,ESE,112,0.0,0.0,97,0.00,,---,0.00,0.00,VWS V14.00,2013-03-25 08:38:00,
2013-03-25 04:43:00,31.5,30.8,29.45,ESE,112,0.0,0.0,97,0.00,,---,0.00,0.00,VWS V14.00,2013-03-25 08:43:00,
2013-03-25 04:48:00,31.5,30.8,29.44,East,92,0.0,0.0,97,0.00,,---,0.00,0.00,VWS V14.00,2013-03-25 08:48:00,
2013-03-25 04:53:00,31.5,30.8,29.44,East,98,0.0,0.0,97,0.00,,---,0.00,0.00,VWS V14.00,2013-03-25 08:53:00,
2013-03-25 04:58:00,31.5,30.8,29.44,South,172,0.0,0.0,97,0.00,,---,0.00,0.00,VWS V14.00,2013-03-25 08:58:00,
2013-03-25 05:00:00,31.6,30.9,29.44,ESE,115,0.0,0.0,97,0.00,,---,0.00,0.00,VWS V14.00,2013-03-25 09:00:00,
2013-03-25 05:03:00,31.6,30.9,29.44,ESE,115,0.0,0.0,97,0.00,,---,0.00,0.00,VWS V14.00,2013-03-25 09:03:00,
2013-03-25 05:08:00,31.7,31.0,29.44,SE,128,0.0,0.0,97,0.00,,---,0.00,0.00,VWS V14.00,2013-03-25 09:08:00,
2013-03-25 05:13:00,31.7,31.0,29.44,SE,134,0.0,0.0,97,0.00,,---,0.00,0.00,VWS V14.00,2013-03-25 09:13:00,
2013-03-25 05:18:00,31.8,31.0,29.44,East,101,0.0,0.0,97,0.00,,---,0.00,0.00,VWS V14.00,2013-03-25 09:18:00,
2013-03-25 05:23:00,31.8,31.0,29.44,ESE,114,0.0,0.0,97,0.00,,---,0.00,0.00,VWS V14.00,2013-03-25 09:23:00,
2013-03-25 05:28:00,31.9,31.1,29.44,SW,229,0.0,0.0,97,0.00,,---,0.00,0.00,VWS V14.00,2013-03-25 09:28:00,
2013-03-25 05:30:00,31.9,31.1,29.44,SW,229,0.0,0.0,97,0.00,,---,0.00,0.00,VWS V14.00,2013-03-25 09:30:00,
2013-03-25 05:34:00,31.9,31.1,29.43,SW,229,0.0,0.0,97,0.00,,---,0.00,0.00,VWS V14.00,2013-03-25 09:34:00,
2013-03-25 05:39:00,32.0,31.2,29.44,NW,308,0.0,0.0,97,0.00,,---,0.00,0.00,VWS V14.00,2013-03-25 09:39:00,
2013-03-25 05:44:00,32.0,31.2,29.44,NW,308,0.0,0.0,97,0.00,,---,0.00,0.00,VWS V14.00,2013-03-25 09:44:00,
2013-03-25 05:49:00,32.0,31.2,29.44,NE,41,0.0,0.0,97,0.00,,---,0.00,0.00,VWS V14.00,2013-03-25 09:49:00,
2013-03-25 05:54:00,32.1,31.4,29.44,NE,41,0.0,0.0,97,0.00,,---,0.00,0.00,VWS V14.00,2013-03-25 09:54:00,
2013-03-25 05:59:00,32.1,31.4,29.44,NE,41,0.0,0.0,97,0.00,,---,0.00,0.00,VWS V14.00,2013-03-25 09:59:00,
2013-03-25 06:00:00,32.1,31.4,29.44,NE,41,0.0,0.0,97,0.00,,---,0.00,0.00,VWS V14.00,2013-03-25 10:00:00,
2013-03-25 06:04:00,32.1,31.4,29.44,NE,41,0.0,0.0,97,0.00,,---,0.00,0.00,VWS V14.00,2013-03-25 10:04:00,
2013-03-25 06:09:00,32.1,31.4,29.44,NE,41,0.0,0.0,97,0.00,,---,0.00,0.00,VWS V14.00,2013-03-25 10:09:00,
2013-03-25 06:14:00,32.2,31.5,29.44,NE,41,0.0,0.0,97,0.00,,---,0.00,0.00,VWS V14.00,2013-03-25 10:14:00,
2013-03-25 06:19:00,32.2,31.5,29.45,NE,41,0.0,0.0,97,0.00,,---,0.00,0.00,VWS V14.00,2013-03-25 10:19:00,
2013-03-25 06:24:00,32.2,31.5,29.44,NE,41,0.0,0.0,97,0.00,,---,0.00,0.00,VWS V14.00,2013-03-25 10:24:00,
2013-03-25 06:29:00,32.2,31.5,29.45,NE,41,0.0,0.0,97,0.00,,---,0.00,0.00,VWS V14.00,2013-03-25 10:29:00,
2013-03-25 06:30:00,32.2,31.5,29.45,NE,41,0.0,0.0,97,0.00,,---,0.00,0.00,VWS V14.00,2013-03-25 10:30:00,
2013-03-25 06:34:00,32.2,31.5,29.45,NE,41,0.0,0.0,97,0.00,,---,0.00,0.00,VWS V14.00,2013-03-25 10:34:00,
2013-03-25 06:39:00,32.3,31.5,29.45,NE,41,0.0,0.0,97,0.00,,---,0.00,0.00,VWS V14.00,2013-03-25 10:39:00,
2013-03-25 06:44:00,32.3,31.5,29.45,NE,41,0.0,0.0,97,0.00,,---,0.00,0.00,VWS V14.00,2013-03-25 10:44:00,
2013-03-25 06:49:00,32.3,31.5,29.45,NE,41,0.0,0.0,97,0.00,,---,0.00,0.00,VWS V14.00,2013-03-25 10:49:00,
2013-03-25 06:54:00,32.3,31.5,29.45,NE,41,0.0,0.0,97,0.00,,---,0.00,0.00,VWS V14.00,2013-03-25 10:54:00,
2013-03-25 06:59:00,32.4,31.6,29.45,NE,41,0.0,0.0,97,0.00,,---,0.00,0.00,VWS V14.00,2013-03-25 10:59:00,
2013-03-25 07:00:00,32.4,31.6,29.45,NE,41,0.0,0.0,97,0.00,,---,0.00,0.00,VWS V14.00,2013-03-25 11:00:00,
2013-03-25 07:04:00,32.5,31.7,29.45,NE,41,0.0,0.0,97,0.00,,---,0.00,0.00,VWS V14.00,2013-03-25 11:04:00,
2013-03-25 07:09:00,32.5,31.7,29.45,NE,41,0.0,0.0,97,0.00,,---,0.00,0.00,VWS V14.00,2013-03-25 11:09:00,
2013-03-25 07:14:00,32.5,31.7,29.45,NE,41,0.0,0.0,97,0.00,,---,0.00,0.00,VWS V14.00,2013-03-25 11:14:00,
2013-03-25 07:19:00,32.5,31.7,29.45,NE,41,0.0,0.0,97,0.00,,---,0.00,0.00,VWS V14.00,2013-03-25 11:19:00,
2013-03-25 07:24:00,32.5,31.7,29.45,NE,41,0.0,0.0,97,0.00,,---,0.00,0.00,VWS V14.00,2013-03-25 11:24:00,
2013-03-25 07:29:00,32.5,31.7,29.45,NE,41,0.0,0.0,97,0.00,,---,0.00,0.00,VWS V14.00,2013-03-25 11:29:00,
2013-03-25 07:30:00,32.5,31.8,29.45,NE,41,0.0,0.0,97,0.00,,---,0.00,0.00,VWS V14.00,2013-03-25 11:30:00,
2013-03-25 07:34:00,32.5,31.7,29.45,NE,41,0.0,0.0,97,0.00,,---,0.00,0.00,VWS V14.00,2013-03-25 11:34:00,
2013-03-25 07:40:00,32.5,31.7,29.45,NE,41,0.0,0.0,97,0.00,,---,0.00,0.00,VWS V14.00,2013-03-25 11:40:00,
2013-03-25 07:45:00,32.6,31.8,29.45,NE,41,0.0,0.0,97,0.00,,---,0.00,0.00,VWS V14.00,2013-03-25 11:45:00,
2013-03-25 07:49:00,32.6,31.8,29.46,NE,41,0.0,0.0,97,0.00,,---,0.00,0.00,VWS V14.00,2013-03-25 11:49:00,
2013-03-25 07:54:00,32.6,31.8,29.46,NE,41,0.0,0.0,97,0.00,,---,0.00,0.00,VWS V14.00,2013-03-25 11:54:00,
2013-03-25 07:59:00,32.6,31.8,29.46,NE,41,0.0,0.0,97,0.00,,---,0.00,0.00,VWS V14.00,2013-03-25 11:59:00,
2013-03-25 08:00:00,32.6,31.8,29.46,NE,41,0.0,0.0,97,0.00,,---,0.00,0.00,VWS V14.00,2013-03-25 12:00:00,
2013-03-25 08:05:00,32.6,31.8,29.46,NE,41,0.0,0.0,97,0.00,,---,0.00,0.00,VWS V14.00,2013-03-25 12:05:00,
2013-03-25 08:10:00,32.6,31.8,29.46,NE,41,0.0,0.0,97,0.00,,---,0.00,5.00,VWS V14.00,2013-03-25 12:10:00,
2013-03-25 08:15:00,32.7,31.9,29.46,NE,41,0.0,0.0,97,0.00,,---,0.00,0.00,VWS V14.00,2013-03-25 12:15:00,
2013-03-25 08:20:00,32.7,31.9,29.46,NE,41,0.0,0.0,97,0.00,,---,0.00,5.00,VWS V14.00,2013-03-25 12:20:00,
2013-03-25 08:25:00,32.7,31.9,29.46,NE,38,0.0,0.0,97,0.00,,---,0.00,5.00,VWS V14.00,2013-03-25 12:25:00,
2013-03-25 08:30:00,32.7,31.9,29.46,NE,38,0.0,0.0,97,0.00,,---,0.00,5.00,VWS V14.00,2013-03-25 12:30:00,
2013-03-25 08:35:00,32.7,31.9,29.46,NE,38,0.0,0.0,97,0.00,,---,0.00,0.00,VWS V14.00,2013-03-25 12:35:00,
2013-03-25 08:40:00,32.7,31.9,29.46,NE,38,0.0,0.0,97,0.00,,---,0.00,5.00,VWS V14.00,2013-03-25 12:40:00,
2013-03-25 08:45:00,32.7,31.9,29.46,NE,38,0.0,0.0,97,0.00,,---,0.00,5.00,VWS V14.00,2013-03-25 12:45:00,
2013-03-25 08:50:00,32.7,31.9,29.47,NE,38,0.0,0.0,97,0.00,,---,0.00,5.00,VWS V14.00,2013-03-25 12:50:00,
2013-03-25 08:55:00,32.8,32.0,29.47,NE,38,0.0,0.0,97,0.00,,---,0.00,5.00,VWS V14.00,2013-03-25 12:55:00,
2013-03-25 09:00:00,32.8,32.0,29.47,NE,38,0.0,0.0,97,0.00,,---,0.00,7.00,VWS V14.00,2013-03-25 13:00:00,
2013-03-25 09:05:00,32.9,32.1,29.47,NE,38,0.0,0.0,97,0.00,,---,0.00,9.00,VWS V14.00,2013-03-25 13:05:00,
2013-03-25 09:10:00,32.9,32.1,29.47,NE,38,0.0,0.0,97,0.00,,---,0.00,11.00,VWS V14.00,2013-03-25 13:10:00,
2013-03-25 09:15:00,33.0,32.2,29.47,NE,38,0.0,0.0,97,0.00,,---,0.00,12.00,VWS V14.00,2013-03-25 13:15:00,
2013-03-25 09:20:00,33.1,32.3,29.47,NE,38,0.0,0.0,97,0.00,,---,0.00,14.00,VWS V14.00,2013-03-25 13:20:00,
2013-03-25 09:25:00,33.2,32.4,29.47,NE,38,0.0,0.0,97,0.00,,---,0.00,14.00,VWS V14.00,2013-03-25 13:25:00,
2013-03-25 09:30:00,33.4,32.6,29.47,NE,38,0.0,0.0,97,0.00,,---,0.00,16.00,VWS V14.00,2013-03-25 13:30:00,
2013-03-25 09:35:00,33.6,32.8,29.47,NE,38,0.0,0.0,97,0.00,,---,0.00,21.00,VWS V14.00,2013-03-25 13:35:00,
2013-03-25 09:40:00,33.8,33.0,29.47,NE,38,0.0,0.0,97,0.00,,---,0.00,23.00,VWS V14.00,2013-03-25 13:40:00,
2013-03-25 09:45:00,33.9,33.1,29.47,NE,38,0.0,0.0,97,0.00,,---,0.00,25.00,VWS V14.00,2013-03-25 13:45:00,
2013-03-25 09:50:00,34.0,33.2,29.47,NE,38,0.0,0.0,97,0.00,,---,0.00,26.00,VWS V14.00,2013-03-25 13:50:00,
2013-03-25 09:55:00,34.1,33.3,29.47,NE,38,0.0,0.0,97,0.00,,---,0.00,28.00,VWS V14.00,2013-03-25 13:55:00,
2013-03-25 10:00:00,34.1,33.3,29.47,NE,38,0.0,0.0,97,0.00,,---,0.00,28.00,VWS V14.00,2013-03-25 14:00:00,
2013-03-25 10:05:00,34.0,33.2,29.48,NE,38,0.0,0.0,97,0.00,,---,0.00,28.00,VWS V14.00,2013-03-25 14:05:00,
2013-03-25 10:11:00,34.2,33.4,29.48,NE,38,0.0,0.0,97,0.00,,---,0.00,32.00,VWS V14.00,2013-03-25 14:11:00,
2013-03-25 10:16:00,34.3,33.5,29.48,NE,38,0.0,0.0,97,0.00,,---,0.00,33.00,VWS V14.00,2013-03-25 14:16:00,
2013-03-25 10:21:00,34.4,33.6,29.48,NE,38,0.0,0.0,97,0.00,,---,0.00,32.00,VWS V14.00,2013-03-25 14:21:00,
2013-03-25 10:26:00,34.4,33.6,29.48,NE,38,0.0,0.0,97,0.00,,---,0.00,25.00,VWS V14.00,2013-03-25 14:26:00,
2013-03-25 10:30:00,34.4,33.6,29.48,NE,38,0.0,0.0,97,0.00,,---,0.00,25.00,VWS V14.00,2013-03-25 14:30:00,
2013-03-25 10:31:00,34.4,33.6,29.48,NE,38,0.0,0.0,97,0.00,,---,0.00,26.00,VWS V14.00,2013-03-25 14:31:00,
2013-03-25 10:36:00,34.3,33.5,29.48,SW,236,0.0,0.0,97,0.00,,---,0.00,25.00,VWS V14.00,2013-03-25 14:36:00,
2013-03-25 10:41:00,34.1,33.3,29.48,SW,224,2.0,4.0,97,0.00,,---,0.00,21.00,VWS V14.00,2013-03-25 14:41:00,
2013-03-25 10:46:00,34.1,33.3,29.48,SW,223,0.0,4.0,97,0.00,,---,0.00,33.00,VWS V14.00,2013-03-25 14:46:00,
2013-03-25 10:51:00,34.1,33.3,29.48,SW,223,0.0,4.0,97,0.00,,---,0.00,33.00,VWS V14.00,2013-03-25 14:51:00,
2013-03-25 10:57:00,34.1,33.3,29.48,WSW,241,0.0,4.0,97,0.00,,---,0.00,33.00,VWS V14.00,2013-03-25 14:57:00,
2013-03-25 11:00:00,34.0,33.0,29.48,SSW,207,0.0,4.0,96,0.00,,---,0.00,33.00,VWS V14.00,2013-03-25 15:00:00,
2013-03-25 11:02:00,34.0,33.0,29.48,SSW,207,0.0,0.0,96,0.00,,---,0.00,33.00,VWS V14.00,2013-03-25 15:02:00,
2013-03-25 11:07:00,34.0,33.0,29.48,SW,224,2.0,3.0,96,0.00,,---,0.00,37.00,VWS V14.00,2013-03-25 15:07:00,
2013-03-25 11:12:00,34.0,33.0,29.49,WSW,254,1.0,7.0,96,0.00,,---,0.00,47.00,VWS V14.00,2013-03-25 15:12:00,
2013-03-25 11:17:00,33.9,32.9,29.49,WSW,250,0.0,7.0,96,0.00,,---,0.00,72.00,VWS V14.00,2013-03-25 15:17:00,
2013-03-25 11:22:00,34.0,33.0,29.49,WSW,244,0.0,7.0,96,0.00,,---,0.00,67.00,VWS V14.00,2013-03-25 15:22:00,
2013-03-25 11:27:00,34.1,33.1,29.49,WSW,244,2.0,7.0,96,0.00,,---,0.00,81.00,VWS V14.00,2013-03-25 15:27:00,
2013-03-25 11:30:00,34.0,33.0,29.49,South,187,0.0,7.0,96,0.00,,---,0.00,90.00,VWS V14.00,2013-03-25 15:30:00,
2013-03-25 11:32:00,34.1,32.8,29.49,SSW,196,0.0,2.0,95,0.00,,---,0.00,91.00,VWS V14.00,2013-03-25 15:32:00,
2013-03-25 11:37:00,34.1,32.8,29.49,SSW,206,1.0,7.0,95,0.00,,---,0.00,100.00,VWS V14.00,2013-03-25 15:37:00,
2013-03-25 11:43:00,34.1,32.8,29.50,SSW,202,1.0,7.0,95,0.00,,---,0.00,97.00,VWS V14.00,2013-03-25 15:43:00,
2013-03-25 11:48:00,34.2,32.9,29.50,West,260,6.0,7.0,95,0.00,,---,0.00,132.00,VWS V14.00,2013-03-25 15:48:00,
2013-03-25 11:53:00,34.2,32.9,29.50,SW,232,0.0,7.0,95,0.00,,---,0.00,146.00,VWS V14.00,2013-03-25 15:53:00,
2013-03-25 11:58:00,34.3,33.0,29.50,WSW,237,0.0,7.0,95,0.00,,---,0.00,195.00,VWS V14.00,2013-03-25 15:58:00,
2013-03-25 12:00:00,34.4,32.9,29.50,South,176,1.0,7.0,94,0.00,,---,0.00,234.00,VWS V14.00,2013-03-25 16:00:00,
2013-03-25 12:03:00,34.4,32.9,29.50,NNE,15,0.0,3.0,94,0.00,,---,0.00,248.00,VWS V14.00,2013-03-25 16:03:00,
2013-03-25 12:08:00,34.6,32.8,29.50,SSW,202,2.0,8.0,93,0.00,,---,0.00,290.00,VWS V14.00,2013-03-25 16:08:00,
2013-03-25 12:13:00,34.7,32.9,29.50,SW,235,2.0,8.0,93,0.00,,---,0.01,318.00,VWS V14.00,2013-03-25 16:13:00,
2013-03-25 12:18:00,34.7,32.6,29.50,WSW,254,5.0,10.0,92,0.00,,---,0.01,318.00,VWS V14.00,2013-03-25 16:18:00,
2013-03-25 12:23:00,34.7,32.6,29.50,WSW,244,0.0,10.0,92,0.00,,---,0.01,302.00,VWS V14.00,2013-03-25 16:23:00,
2013-03-25 12:28:00,34.7,32.9,29.51,SW,223,6.0,10.0,93,0.04,,---,0.02,297.00,VWS V14.00,2013-03-25 16:28:00,
2013-03-25 12:30:00,34.7,32.9,29.51,SW,229,1.0,10.0,93,0.12,,---,0.02,325.00,VWS V14.00,2013-03-25 16:30:00,
2013-03-25 12:33:00,34.7,32.9,29.51,WSW,248,4.0,6.0,93,0.12,,---,0.03,345.00,VWS V14.00,2013-03-25 16:33:00,
2013-03-25 12:38:00,34.8,33.0,29.51,SW,231,3.0,7.0,93,0.08,,---,0.03,343.00,VWS V14.00,2013-03-25 16:38:00,
2013-03-25 12:43:00,35.0,33.2,29.51,WSW,247,0.0,7.0,93,0.06,,---,0.04,339.00,VWS V14.00,2013-03-25 16:43:00,
2013-03-25 12:48:00,35.2,33.4,29.51,WSW,241,3.0,7.0,93,0.14,,---,0.05,325.00,VWS V14.00,2013-03-25 16:48:00,
2013-03-25 12:53:00,35.3,33.2,29.51,WSW,254,2.0,7.0,92,0.08,,---,0.05,316.00,VWS V14.00,2013-03-25 16:53:00,
2013-03-25 12:58:00,35.2,32.8,29.51,WSW,250,1.0,7.0,91,0.06,,---,0.06,290.00,VWS V14.00,2013-03-25 16:58:00,
2013-03-25 13:00:00,35.3,33.2,29.51,SW,235,2.0,7.0,92,0.16,,---,0.07,301.00,VWS V14.00,2013-03-25 17:00:00,
2013-03-25 13:04:00,35.3,33.2,29.51,WSW,253,6.0,6.0,92,0.14,,---,0.07,269.00,VWS V14.00,2013-03-25 17:04:00,
2013-03-25 13:09:00,35.3,32.9,29.51,SW,234,0.0,6.0,91,0.08,,---,0.08,345.00,VWS V14.00,2013-03-25 17:09:00,
2013-03-25 13:14:00,35.2,32.8,29.51,SW,217,1.0,11.0,91,0.17,,---,0.09,392.00,VWS V14.00,2013-03-25 17:14:00,
2013-03-25 13:19:00,35.3,33.2,29.51,WSW,250,0.0,11.0,92,0.08,,---,0.10,461.00,VWS V14.00,2013-03-25 17:19:00,
2013-03-25 13:24:00,35.6,33.5,29.51,West,267,2.0,11.0,92,0.18,,---,0.11,468.00,VWS V14.00,2013-03-25 17:24:00,
2013-03-25 13:29:00,35.9,33.5,29.51,WSW,238,3.0,11.0,91,0.09,,---,0.12,441.00,VWS V14.00,2013-03-25 17:29:00,
2013-03-25 13:30:00,35.9,33.5,29.51,West,265,1.0,11.0,91,0.18,,---,0.13,439.00,VWS V14.00,2013-03-25 17:30:00,
2013-03-25 13:34:00,36.0,33.6,29.51,West,263,0.0,3.0,91,0.18,,---,0.13,399.00,VWS V14.00,2013-03-25 17:34:00,
2013-03-25 13:39:00,36.2,33.6,29.51,West,266,2.0,6.0,90,0.10,,---,0.14,338.00,VWS V14.00,2013-03-25 17:39:00,
2013-03-25 13:44:00,36.1,33.2,29.52,WSW,244,1.0,6.0,89,0.18,,---,0.15,276.00,VWS V14.00,2013-03-25 17:44:00,
2013-03-25 13:49:00,36.1,33.5,29.52,South,188,2.0,6.0,90,0.08,,---,0.16,264.00,VWS V14.00,2013-03-25 17:49:00,
2013-03-25 13:54:00,35.9,33.0,29.52,WSW,250,0.0,7.0,89,0.15,,---,0.17,359.00,VWS V14.00,2013-03-25 17:54:00,
2013-03-25 13:59:00,35.9,33.0,29.52,WSW,252,3.0,7.0,89,0.09,,---,0.17,390.00,VWS V14.00,2013-03-25 17:59:00,
2013-03-25 14:00:00,35.8,32.9,29.52,SW,217,5.0,7.0,89,0.07,,---,0.18,410.00,VWS V14.00,2013-03-25 18:00:00,
2013-03-25 14:04:00,35.9,33.3,29.52,WSW,246,3.0,10.0,90,0.07,,---,0.19,471.00,VWS V14.00,2013-03-25 18:04:00,
2013-03-25 14:09:00,36.1,33.5,29.52,South,190,0.0,10.0,90,0.13,,---,0.19,468.00,VWS V14.00,2013-03-25 18:09:00,
2013-03-25 14:14:00,36.2,33.3,29.52,West,268,1.0,10.0,89,0.08,,---,0.20,424.00,VWS V14.00,2013-03-25 18:14:00,
2013-03-25 14:19:00,36.3,33.4,29.52,West,274,7.0,10.0,89,0.16,,---,0.21,387.00,VWS V14.00,2013-03-25 18:19:00,
2013-03-25 14:24:00,36.2,33.3,29.52,SW,218,4.0,11.0,89,0.09,,---,0.22,374.00,VWS V14.00,2013-03-25 18:24:00,
2013-03-25 14:29:00,36.0,33.1,29.52,West,259,3.0,11.0,89,0.15,,---,0.23,432.00,VWS V14.00,2013-03-25 18:29:00,
2013-03-25 14:30:00,36.0,33.4,29.52,WSW,238,2.0,11.0,90,0.10,,---,0.23,436.00,VWS V14.00,2013-03-25 18:30:00,
2013-03-25 14:34:00,36.1,33.5,29.53,West,259,3.0,5.0,90,0.07,,---,0.23,420.00,VWS V14.00,2013-03-25 18:34:00,
2013-03-25 14:39:00,36.0,33.1,29.52,WSW,248,3.0,10.0,89,0.16,,---,0.25,399.00,VWS V14.00,2013-03-25 18:39:00,
2013-03-25 14:44:00,36.0,33.4,29.52,WSW,254,0.0,10.0,90,0.10,,---,0.25,299.00,VWS V14.00,2013-03-25 18:44:00,
2013-03-25 14:49:00,35.9,33.3,29.52,West,265,5.0,10.0,90,0.07,,---,0.26,295.00,VWS V14.00,2013-03-25 18:49:00,
2013-03-25 14:54:00,35.8,33.4,29.52,WSW,238,2.0,10.0,91,0.13,,---,0.27,404.00,VWS V14.00,2013-03-25 18:54:00,
2013-03-25 14:59:00,35.9,33.5,29.52,WSW,256,1.0,10.0,91,0.07,,---,0.27,388.00,VWS V14.00,2013-03-25 18:59:00,
2013-03-25 15:00:00,35.9,33.5,29.52,West,261,3.0,10.0,91,0.06,,---,0.27,399.00,VWS V14.00,2013-03-25 19:00:00,
2013-03-25 15:04:00,35.9,33.5,29.52,West,265,5.0,5.0,91,0.05,,---,0.28,410.00,VWS V14.00,2013-03-25 19:04:00,
2013-03-25 15:09:00,35.9,33.5,29.52,WSW,250,3.0,6.0,91,0.13,,---,0.29,436.00,VWS V14.00,2013-03-25 19:09:00,
2013-03-25 15:14:00,36.0,33.9,29.52,WSW,252,0.0,7.0,92,0.09,,---,0.29,454.00,VWS V14.00,2013-03-25 19:14:00,
2013-03-25 15:19:00,36.3,34.5,29.53,WSW,241,0.0,7.0,93,0.17,,---,0.31,476.00,VWS V14.00,2013-03-25 19:19:00,
2013-03-25 15:24:00,36.7,34.9,29.53,WSW,244,1.0,7.0,93,0.12,,---,0.31,450.00,VWS V14.00,2013-03-25 19:24:00,
2013-03-25 15:29:00,36.9,34.8,29.52,WSW,254,1.0,7.0,92,0.08,,---,0.32,415.00,VWS V14.00,2013-03-25 19:29:00,
2013-03-25 15:30:00,36.9,34.8,29.52,WSW,254,2.0,7.0,92,0.15,,---,0.33,422.00,VWS V14.00,2013-03-25 19:30:00,
2013-03-25 15:34:00,37.0,34.6,29.53,West,261,2.0,4.0,91,0.15,,---,0.33,512.00,VWS V14.00,2013-03-25 19:34:00,
2013-03-25 15:39:00,37.2,34.8,29.52,WSW,250,1.0,5.0,91,0.07,,---,0.33,526.00,VWS V14.00,2013-03-25 19:39:00,
2013-03-25 15:44:00,37.3,34.9,29.53,South,190,1.0,5.0,91,0.06,,---,0.35,527.00,VWS V14.00,2013-03-25 19:44:00,
2013-03-25 15:50:00,37.5,34.8,29.53,WSW,238,2.0,5.0,90,0.13,,---,0.35,494.00,VWS V14.00,2013-03-25 19:50:00,
2013-03-25 15:54:00,37.4,34.7,29.53,SW,215,0.0,5.0,90,0.08,,---,0.36,350.00,VWS V14.00,2013-03-25 19:54:00,
2013-03-25 16:00:00,37.1,34.2,29.53,WSW,240,4.0,8.0,89,0.16,,---,0.37,294.00,VWS V14.00,2013-03-25 20:00:00,
2013-03-25 16:05:00,36.7,33.8,29.54,West,269,5.0,10.0,89,0.07,,---,0.37,345.00,VWS V14.00,2013-03-25 20:05:00,
2013-03-25 16:10:00,36.3,33.7,29.54,West,259,5.0,10.0,90,0.06,,---,0.38,313.00,VWS V14.00,2013-03-25 20:10:00,
2013-03-25 16:15:00,36.0,33.1,29.54,West,276,11.0,11.0,89,0.10,,---,0.39,213.00,VWS V14.00,2013-03-25 20:15:00,
2013-03-25 16:20:00,35.6,32.7,29.54,WSW,257,4.0,12.0,89,0.07,,---,0.39,167.00,VWS V14.00,2013-03-25 20:20:00,
2013-03-25 16:25:00,35.4,32.8,29.54,West,268,5.0,12.0,90,0.05,,---,0.39,167.00,VWS V14.00,2013-03-25 20:25:00,
2013-03-25 16:30:00,35.3,32.9,29.55,West,263,3.0,12.0,91,0.04,,---,0.40,236.00,VWS V14.00,2013-03-25 20:30:00,
2013-03-25 16:35:00,35.3,33.2,29.55,West,266,4.0,7.0,92,0.07,,---,0.41,230.00,VWS V14.00,2013-03-25 20:35:00,
2013-03-25 16:40:00,35.5,33.4,29.55,SW,216,1.0,7.0,92,0.07,,---,0.41,213.00,VWS V14.00,2013-03-25 20:40:00,
2013-03-25 16:45:00,35.6,33.8,29.56,West,267,0.0,7.0,93,0.06,,---,0.41,128.00,VWS V14.00,2013-03-25 20:45:00,
2013-03-25 16:50:00,35.7,33.6,29.56,SW,235,0.0,7.0,92,0.04,,---,0.41,60.00,VWS V14.00,2013-03-25 20:50:00,
2013-03-25 16:55:00,35.6,33.5,29.56,West,261,1.0,7.0,92,0.00,,---,0.42,69.00,VWS V14.00,2013-03-25 20:55:00,
2013-03-25 17:00:00,35.4,33.6,29.57,West,263,4.0,7.0,93,0.00,,---,0.42,116.00,VWS V14.00,2013-03-25 21:00:00,
2013-03-25 17:05:00,35.2,33.4,29.57,WSW,238,3.0,6.0,93,0.09,,---,0.43,123.00,VWS V14.00,2013-03-25 21:05:00,
2013-03-25 17:10:00,35.2,33.4,29.57,West,259,2.0,6.0,93,0.06,,---,0.43,114.00,VWS V14.00,2013-03-25 21:10:00,
2013-03-25 17:15:00,35.1,33.3,29.57,WSW,246,3.0,6.0,93,0.04,,---,0.43,121.00,VWS V14.00,2013-03-25 21:15:00,
2013-03-25 17:20:00,35.0,33.5,29.57,West,277,5.0,6.0,94,0.00,,---,0.43,165.00,VWS V14.00,2013-03-25 21:20:00,
2013-03-25 17:25:00,35.0,33.5,29.57,WSW,240,4.0,7.0,94,0.00,,---,0.43,127.00,VWS V14.00,2013-03-25 21:25:00,
2013-03-25 17:30:00,35.0,33.5,29.58,WSW,257,5.0,7.0,94,0.00,,---,0.43,90.00,VWS V14.00,2013-03-25 21:30:00,
2013-03-25 17:35:00,35.0,33.5,29.58,WSW,248,1.0,6.0,94,0.00,,---,0.44,93.00,VWS V14.00,2013-03-25 21:35:00,
2013-03-25 17:40:00,35.1,33.5,29.58,WSW,241,3.0,6.0,94,0.00,,---,0.44,107.00,VWS V14.00,2013-03-25 21:40:00,
2013-03-25 17:45:00,35.2,33.7,29.58,WSW,246,2.0,6.0,94,0.00,,---,0.44,90.00,VWS V14.00,2013-03-25 21:45:00,
2013-03-25 17:50:00,35.2,33.7,29.59,WSW,248,4.0,6.0,94,0.04,,---,0.45,79.00,VWS V14.00,2013-03-25 21:50:00,
2013-03-25 17:55:00,35.2,33.7,29.59,WSW,250,0.0,6.0,94,0.04,,---,0.45,81.00,VWS V14.00,2013-03-25 21:55:00,
2013-03-25 18:00:00,35.2,33.7,29.59,West,263,3.0,6.0,94,0.04,,---,0.45,65.00,VWS V14.00,2013-03-25 22:00:00,
2013-03-25 18:05:00,35.1,33.5,29.59,SW,232,3.0,6.0,94,0.00,,---,0.45,46.00,VWS V14.00,2013-03-25 22:05:00,
2013-03-25 18:11:00,35.0,33.5,29.59,SW,234,3.0,8.0,94,0.00,,---,0.45,51.00,VWS V14.00,2013-03-25 22:11:00,
2013-03-25 18:16:00,34.9,33.3,29.60,West,259,2.0,8.0,94,0.00,,---,0.45,53.00,VWS V14.00,2013-03-25 22:16:00,
2013-03-25 18:21:00,34.8,33.0,29.60,SW,218,4.0,8.0,93,0.00,,---,0.46,62.00,VWS V14.00,2013-03-25 22:21:00,
2013-03-25 18:26:00,34.8,33.0,29.60,WSW,242,4.0,8.0,93,0.00,,---,0.46,58.00,VWS V14.00,2013-03-25 22:26:00,
2013-03-25 18:30:00,34.8,33.0,29.61,WSW,244,0.0,8.0,93,0.00,,---,0.46,51.00,VWS V14.00,2013-03-25 22:30:00,
2013-03-25 18:31:00,34.7,32.9,29.61,WSW,244,0.0,8.0,93,0.00,,---,0.46,51.00,VWS V14.00,2013-03-25 22:31:00,
2013-03-25 18:36:00,34.7,32.9,29.61,WSW,242,4.0,7.0,93,0.00,,---,0.46,42.00,VWS V14.00,2013-03-25 22:36:00,
2013-03-25 18:41:00,34.6,32.8,29.61,West,260,5.0,8.0,93,0.00,,---,0.46,33.00,VWS V14.00,2013-03-25 22:41:00,
2013-03-25 18:46:00,34.5,32.7,29.62,WSW,250,1.0,8.0,93,0.00,,---,0.46,26.00,VWS V14.00,2013-03-25 22:46:00,
2013-03-25 18:51:00,34.5,32.7,29.62,West,267,6.0,8.0,93,0.00,,---,0.47,23.00,VWS V14.00,2013-03-25 22:51:00,
2013-03-25 18:57:00,34.5,32.7,29.62,SW,236,4.0,8.0,93,0.00,,---,0.47,21.00,VWS V14.00,2013-03-25 22:57:00,
2013-03-25 19:00:00,34.4,32.6,29.63,SW,236,3.0,8.0,93,0.00,,---,0.47,14.00,VWS V14.00,2013-03-25 23:00:00,
2013-03-25 19:02:00,34.4,32.6,29.63,SW,229,6.0,6.0,93,0.00,,---,0.47,14.00,VWS V14.00,2013-03-25 23:02:00,
2013-03-25 19:07:00,34.4,32.6,29.63,West,265,1.0,6.0,93,0.00,,---,0.47,14.00,VWS V14.00,2013-03-25 23:07:00,
2013-03-25 19:12:00,34.4,32.6,29.63,WSW,255,4.0,6.0,93,0.00,,---,0.47,11.00,VWS V14.00,2013-03-25 23:12:00,
2013-03-25 19:17:00,34.3,32.5,29.64,WSW,256,0.0,6.0,93,0.00,,---,0.47,9.00,VWS V14.00,2013-03-25 23:17:00,
2013-03-25 19:22:00,34.3,32.5,29.64,West,267,4.0,7.0,93,0.00,,---,0.47,7.00,VWS V14.00,2013-03-25 23:22:00,
2013-03-25 19:27:00,34.2,32.4,29.64,WSW,245,4.0,10.0,93,0.00,,---,0.47,5.00,VWS V14.00,2013-03-25 23:27:00,
2013-03-25 19:30:00,34.2,32.1,29.65,WSW,250,4.0,10.0,92,0.00,,---,0.47,0.00,VWS V14.00,2013-03-25 23:30:00,
2013-03-25 19:32:00,34.2,32.1,29.65,WNW,285,5.0,12.0,92,0.00,,---,0.47,0.00,VWS V14.00,2013-03-25 23:32:00,
2013-03-25 19:37:00,34.1,32.0,29.65,West,269,8.0,12.0,92,0.00,,---,0.47,0.00,VWS V14.00,2013-03-25 23:37:00,
2013-03-25 19:42:00,34.0,31.9,29.65,WSW,243,4.0,12.0,92,0.00,,---,0.47,0.00,VWS V14.00,2013-03-25 23:42:00,
2013-03-25 19:47:00,33.9,32.1,29.65,WSW,252,3.0,12.0,93,0.00,,---,0.47,0.00,VWS V14.00,2013-03-25 23:47:00,
2013-03-25 19:52:00,33.8,33.8,29.66,WSW,246,0.0,12.0,100,0.00,,---,0.47,0.00,VWS V14.00,2013-03-25 23:52:00,
2013-03-25 19:57:00,33.7,31.9,29.66,SW,234,3.0,12.0,93,0.00,,---,0.47,0.00,VWS V14.00,2013-03-25 23:57:00,
2013-03-25 20:00:00,33.7,31.9,29.66,WSW,241,4.0,12.0,93,0.00,,---,0.47,0.00,VWS V14.00,2013-03-26 00:00:00,
2013-03-25 20:02:00,33.7,31.9,29.66,SW,225,4.0,6.0,93,0.00,,---,0.47,0.00,VWS V14.00,2013-03-26 00:02:00,
2013-03-25 20:07:00,33.6,31.8,29.66,WSW,240,5.0,9.0,93,0.00,,---,0.47,0.00,VWS V14.00,2013-03-26 00:07:00,
2013-03-25 20:12:00,33.5,31.7,29.67,WSW,246,3.0,9.0,93,0.00,,---,0.47,0.00,VWS V14.00,2013-03-26 00:12:00,
2013-03-25 20:17:00,33.5,31.7,29.67,WSW,258,3.0,9.0,93,0.00,,---,0.47,0.00,VWS V14.00,2013-03-26 00:17:00,
2013-03-25 20:22:00,33.5,31.7,29.67,West,267,4.0,9.0,93,0.00,,---,0.47,0.00,VWS V14.00,2013-03-26 00:22:00,
2013-03-25 20:27:00,33.4,31.6,29.67,WSW,255,0.0,9.0,93,0.00,,---,0.47,0.00,VWS V14.00,2013-03-26 00:27:00,
2013-03-25 20:30:00,33.4,31.6,29.67,WSW,244,0.0,9.0,93,0.00,,---,0.47,0.00,VWS V14.00,2013-03-26 00:30:00,
2013-03-25 20:32:00,33.4,31.6,29.67,West,259,2.0,3.0,93,0.00,,---,0.47,0.00,VWS V14.00,2013-03-26 00:32:00,
2013-03-25 20:37:00,33.4,31.9,29.67,WSW,248,2.0,4.0,94,0.00,,---,0.47,0.00,VWS V14.00,2013-03-26 00:37:00,
2013-03-25 20:42:00,33.3,31.8,29.67,SSW,196,3.0,4.0,94,0.00,,---,0.47,0.00,VWS V14.00,2013-03-26 00:42:00,
2013-03-25 20:47:00,33.3,31.8,29.68,West,261,1.0,4.0,94,0.00,,---,0.47,0.00,VWS V14.00,2013-03-26 00:47:00,
2013-03-25 20:52:00,33.3,31.8,29.68,WSW,238,1.0,4.0,94,0.00,,---,0.47,0.00,VWS V14.00,2013-03-26 00:52:00,
2013-03-25 20:57:00,33.2,31.7,29.69,WSW,257,2.0,5.0,94,0.00,,---,0.47,0.00,VWS V14.00,2013-03-26 00:57:00,
2013-03-25 21:00:00,33.2,31.7,29.69,WSW,247,1.0,7.0,94,0.00,,---,0.47,0.00,VWS V14.00,2013-03-26 01:00:00,
2013-03-25 21:03:00,33.2,31.9,29.69,WSW,257,5.0,5.0,95,0.00,,---,0.47,0.00,VWS V14.00,2013-03-26 01:03:00,
2013-03-25 21:08:00,33.2,31.9,29.69,SW,234,2.0,5.0,95,0.00,,---,0.47,0.00,VWS V14.00,2013-03-26 01:08:00,
2013-03-25 21:13:00,33.1,31.8,29.69,SW,216,2.0,5.0,95,0.00,,---,0.47,0.00,VWS V14.00,2013-03-26 01:13:00,
2013-03-25 21:18:00,33.0,31.7,29.69,WSW,250,2.0,5.0,95,0.00,,---,0.47,0.00,VWS V14.00,2013-03-26 01:18:00,
2013-03-25 21:23:00,33.1,31.8,29.69,SSW,213,4.0,5.0,95,0.00,,---,0.47,0.00,VWS V14.00,2013-03-26 01:23:00,
2013-03-25 21:28:00,33.0,31.7,29.69,WSW,245,0.0,5.0,95,0.00,,---,0.47,0.00,VWS V14.00,2013-03-26 01:28:00,
2013-03-25 21:30:00,33.0,31.7,29.70,WSW,256,1.0,5.0,95,0.00,,---,0.47,0.00,VWS V14.00,2013-03-26 01:30:00,
2013-03-25 21:33:00,33.0,31.7,29.70,WSW,257,3.0,4.0,95,0.00,,---,0.47,0.00,VWS V14.00,2013-03-26 01:33:00,
2013-03-25 21:38:00,33.0,31.7,29.70,SW,235,0.0,4.0,95,0.00,,---,0.47,0.00,VWS V14.00,2013-03-26 01:38:00,
2013-03-25 21:43:00,32.9,31.6,29.70,SW,228,3.0,5.0,95,0.00,,---,0.47,0.00,VWS V14.00,2013-03-26 01:43:00,
2013-03-25 21:48:00,32.9,31.6,29.70,WSW,251,3.0,5.0,95,0.00,,---,0.47,0.00,VWS V14.00,2013-03-26 01:48:00,
2013-03-25 21:53:00,32.8,31.5,29.70,West,262,1.0,5.0,95,0.00,,---,0.47,0.00,VWS V14.00,2013-03-26 01:53:00,
2013-03-25 21:58:00,32.8,31.5,29.70,WSW,254,0.0,5.0,95,0.00,,---,0.47,0.00,VWS V14.00,2013-03-26 01:58:00,
2013-03-25 22:00:00,32.8,31.5,29.70,WSW,254,0.0,5.0,95,0.00,,---,0.47,0.00,VWS V14.00,2013-03-26 02:00:00,
2013-03-25 22:03:00,32.8,31.5,29.71,WSW,254,0.0,3.0,95,0.00,,---,0.47,0.00,VWS V14.00,2013-03-26 02:03:00,
2013-03-25 22:08:00,32.7,31.4,29.71,SW,234,0.0,3.0,95,0.00,,---,0.47,0.00,VWS V14.00,2013-03-26 02:08:00,
2013-03-25 22:13:00,32.7,31.4,29.71,WSW,237,2.0,3.0,95,0.00,,---,0.47,0.00,VWS V14.00,2013-03-26 02:13:00,
2013-03-25 22:18:00,32.7,31.4,29.71,SW,221,1.0,4.0,95,0.00,,---,0.47,0.00,VWS V14.00,2013-03-26 02:18:00,
2013-03-25 22:23:00,32.7,31.4,29.71,West,261,1.0,4.0,95,0.00,,---,0.47,0.00,VWS V14.00,2013-03-26 02:23:00,
2013-03-25 22:28:00,32.7,31.7,29.71,WSW,254,1.0,4.0,96,0.00,,---,0.47,0.00,VWS V14.00,2013-03-26 02:28:00,
2013-03-25 22:30:00,32.7,31.7,29.71,WSW,252,0.0,4.0,96,0.00,,---,0.47,0.00,VWS V14.00,2013-03-26 02:30:00,
2013-03-25 22:33:00,32.7,31.7,29.71,WSW,244,1.0,3.0,96,0.00,,---,0.47,0.00,VWS V14.00,2013-03-26 02:33:00,
2013-03-25 22:38:00,32.7,31.7,29.71,SW,236,0.0,3.0,96,0.00,,---,0.47,0.00,VWS V14.00,2013-03-26 02:38:00,
2013-03-25 22:43:00,32.6,31.6,29.72,West,263,2.0,4.0,96,0.00,,---,0.47,0.00,VWS V14.00,2013-03-26 02:43:00,
2013-03-25 22:49:00,32.6,31.6,29.72,West,260,1.0,4.0,96,0.00,,---,0.47,0.00,VWS V14.00,2013-03-26 02:49:00,
2013-03-25 22:54:00,32.6,31.6,29.72,WSW,241,0.0,4.0,96,0.00,,---,0.47,0.00,VWS V14.00,2013-03-26 02:54:00,
2013-03-25 22:59:00,32.6,31.6,29.72,SW,216,4.0,5.0,96,0.00,,---,0.47,0.00,VWS V14.00,2013-03-26 02:59:00,
2013-03-25 23:00:00,32.6,31.6,29.72,WSW,242,3.0,5.0,96,0.00,,---,0.47,0.00,VWS V14.00,2013-03-26 03:00:00,
2013-03-25 23:04:00,32.6,31.6,29.72,SW,227,0.0,3.0,96,0.00,,---,0.47,0.00,VWS V14.00,2013-03-26 03:04:00,
2013-03-25 23:09:00,32.6,31.6,29.72,WSW,254,2.0,3.0,96,0.00,,---,0.47,0.00,VWS V14.00,2013-03-26 03:09:00,
2013-03-25 23:14:00,32.6,31.6,29.72,WSW,253,0.0,4.0,96,0.00,,---,0.47,0.00,VWS V14.00,2013-03-26 03:14:00,
2013-03-25 23:19:00,32.6,31.6,29.72,SW,236,2.0,4.0,96,0.00,,---,0.47,0.00,VWS V14.00,2013-03-26 03:19:00,
2013-03-25 23:24:00,32.5,31.5,29.73,SW,232,0.0,4.0,96,0.00,,---,0.47,0.00,VWS V14.00,2013-03-26 03:24:00,
2013-03-25 23:29:00,32.6,31.6,29.73,SW,234,2.0,4.0,96,0.00,,---,0.47,0.00,VWS V14.00,2013-03-26 03:29:00,
2013-03-25 23:30:00,32.6,31.6,29.73,WSW,246,0.0,4.0,96,0.00,,---,0.47,0.00,VWS V14.00,2013-03-26 03:30:00,
2013-03-25 23:34:00,32.6,31.6,29.73,WSW,255,1.0,5.0,96,0.00,,---,0.47,0.00,VWS V14.00,2013-03-26 03:34:00,
2013-03-25 23:39:00,32.6,31.6,29.73,West,259,3.0,5.0,96,0.00,,---,0.47,0.00,VWS V14.00,2013-03-26 03:39:00,
2013-03-25 23:44:00,32.6,31.6,29.74,WSW,247,2.0,5.0,96,0.00,,---,0.47,0.00,VWS V14.00,2013-03-26 03:44:00,
2013-03-25 23:49:00,32.6,31.6,29.74,WSW,247,2.0,5.0,96,0.00,,---,0.47,0.00,VWS V14.00,2013-03-26 03:49:00,
2013-03-25 23:54:00,32.6,31.6,29.74,WSW,248,0.0,5.0,96,0.00,,---,0.47,0.00,VWS V14.00,2013-03-26 03:54:00,
2013-03-25 23:59:00,32.6,31.6,29.74,West,261,3.0,5.0,96,0.00,,---,0.47,0.00,VWS V14.00,2013-03-26 03:59:00,